Northport NY Webcam more information Northport NY Webcam


Visit our other weather sites:

Template documentation
and downloads

And another site



Nearby METAR Reports


Warning: A non-numeric value encountered in /home/portan24/public_html/weather28/metar/wsMetarTxt.php on line 608

Warning: A non-numeric value encountered in /home/portan24/public_html/weather28/metar/wsMetarTxt.php on line 608

Warning: A non-numeric value encountered in /home/portan24/public_html/weather28/metar/wsMetarTxt.php on line 608

Warning: A non-numeric value encountered in /home/portan24/public_html/weather28/metar/wsMetarTxt.php on line 608

Warning: A non-numeric value encountered in /home/portan24/public_html/weather28/metar/wsMetarTxt.php on line 608

Warning: A non-numeric value encountered in /home/portan24/public_html/weather28/metar/wsMetarTxt.php on line 608
   
EBBR - Brussels International Airport, Belgium
Distance from station: W 9 mi
Updated: Jan 22 2018 6:20 pm
Mostly Cloudy  
Mostly Cloudy  
   Wind: WSW 8.1 mph
Wind: WSW 8.1 mph
Temperature: 44.6°F
Wind Chill: 39.2°F
Dew Point: 37.4°F
Humidity: 76%
Barometer: 30.12 inHg
Clouds: Mostly Cloudy
Visibility: More than 6 mi
Cloud details: Mostly Cloudy 1341 m
EBBR 222320Z 24007KT 9999 BKN044 07/03 Q1020 NOSIG
EBBE - Beauvechain (Bevekom), Belgium
Distance from station: SSE 10 mi
Updated: Jan 22 2018 6:25 pm
Mostly Cloudy  
Mostly Cloudy  
   Wind: WSW 6.9 mph
Wind: WSW 6.9 mph
Temperature: 42.8°F
Wind Chill: 39.2°F
Dew Point: 37.4°F
Humidity: 81%
Barometer: 30.12 inHg
Clouds: Mostly Cloudy
Visibility: More than 6 mi
Cloud details: Mostly Cloudy 1250 m
EBBE 222325Z AUTO 24006KT 9999 BKN041/// 06/03 Q1020 BLU
EBDT - Schaffen, Belgium
Distance from station: ENE 18 mi
Updated: Jan 22 2018 6:25 pm
Overcast  
Overcast  
   Wind: WSW 5.8 mph
Wind: WSW 5.8 mph
Temperature: 44.6°F
Wind Chill: 41°F
Dew Point: 39.2°F
Humidity: 81%
Barometer: 30.12 inHg
Clouds: Overcast
Visibility: More than 6 mi
Cloud details: Few Clouds 1097 m,
Overcast 1280 m
EBDT 222325Z AUTO 24005KT 9999 FEW036/// OVC042/// 07/04 Q1020 BLU
EBAW - Antwerp/Deurne, Belgium
Distance from station: NNW 23 mi
Updated: Jan 22 2018 6:20 pm
Overcast  
Overcast  
   Wind: WSW 8.1 mph
Wind: WSW 8.1 mph
Temperature: 46.4°F
Wind Chill: 42.8°F
Dew Point: 41°F
Humidity: 82%
Barometer: 30.09 inHg
Clouds: Overcast
Visibility: More than 6 mi
Cloud details: Overcast 1341 m
EBAW 222320Z AUTO 25007KT 9999 // OVC044/// 08/05 Q1019
EBCI - Charleroi/Gosselies, Belgium
Distance from station: SSW 32 mi
Updated: Jan 22 2018 6:20 pm
Mostly Cloudy  
Mostly Cloudy  
   Wind: WSW 6.9 mph
Wind: WSW 6.9 mph
Temperature: 42.8°F
Wind Chill: 39.2°F
Dew Point: 39.2°F
Humidity: 87%
Barometer: 30.12 inHg
Clouds: Mostly Cloudy
Visibility: More than 6 mi
Cloud details: Mostly Cloudy 1158 m
EBCI 222320Z 25006KT 9999 BKN038 06/04 Q1020 NOSIG
EBLG - Bierset/Liege, Belgium
Distance from station: ESE 38 mi
Updated: Jan 22 2018 6:20 pm
Mostly Cloudy  
Mostly Cloudy  
   Wind: WSW 8.1 mph
Wind: WSW 8.1 mph
Temperature: 42.8°F
Wind Chill: 37.4°F
Dew Point: 39.2°F
Humidity: 87%
Barometer: 30.12 inHg
Clouds: Mostly Cloudy
Visibility: More than 6 mi
Cloud details: Few Clouds 975 m,
Mostly Cloudy 1097 m
EBLG 222320Z 25007KT 210V270 9999 FEW032 BKN036 06/04 Q1020 NOSIG

Script developed by  Saratoga-weather.org Adapted for the template by  Weerstation Leuven

You find our weather info also at:

Weather Underground

AWEKAS

Citizen Weather Observer Program (CWOP)

Equipment we use:

Weather-station
Davis VP2

Davis VP2